Time;durP1;ratioP1;P1;durP2;ratioP2;P2;SDS_P1;SDS_P2;PMS_P1;PMS_P2;Temp;Humidity;BMP_temperature;BMP_pressure;BME280_temperature;BME280_humidity;BME280_pressure;Samples;Min_cycle;Max_cycle;Signal;HPM_P1;HPM_P2
2021/11/25 00:01:03;;;;;;;117.53;54.95;;;;;;;-2.01;71.37;97391.55;1791871;78;25902;-81
2021/11/25 00:03:30;;;;;;;104.55;48.45;;;;;;;-2.01;71.34;97386.73;1792009;78;26311;-81
2021/11/25 00:05:56;;;;;;;103.40;51.20;;;;;;;-2.03;71.37;97378.09;1791894;79;25664;-81
2021/11/25 00:08:23;;;;;;;101.95;47.98;;;;;;;-2.04;71.32;97390.48;1791718;79;27427;-81
2021/11/25 00:10:50;;;;;;;106.85;49.30;;;;;;;-2.03;71.43;97392.16;1791663;78;25775;-81
2021/11/25 00:13:16;;;;;;;98.60;44.58;;;;;;;-1.98;71.43;97383.35;1791718;78;25662;-81
2021/11/25 00:15:43;;;;;;;98.67;43.05;;;;;;;-2.04;71.25;97377.26;1791660;78;26044;-81
2021/11/25 00:18:10;;;;;;;95.00;42.38;;;;;;;-2.11;71.18;97373.97;1791904;78;25740;-82
2021/11/25 00:20:36;;;;;;;93.85;43.40;;;;;;;-2.14;71.26;97371.10;1791682;78;27407;-81
2021/11/25 00:23:03;;;;;;;95.85;43.92;;;;;;;-2.12;71.35;97366.52;1791719;78;25680;-81
2021/11/25 00:25:30;;;;;;;99.20;43.85;;;;;;;-2.10;71.47;97363.27;1791849;78;25716;-81
2021/11/25 00:27:56;;;;;;;94.77;44.93;;;;;;;-2.08;71.51;97364.45;1791762;78;26167;-81
2021/11/25 00:30:23;;;;;;;91.35;42.78;;;;;;;-2.10;71.42;97371.20;1791704;78;25235;-81
2021/11/25 00:32:50;;;;;;;87.45;43.95;;;;;;;-2.20;71.41;97360.59;1791701;80;28204;-81
2021/11/25 00:35:16;;;;;;;93.62;42.15;;;;;;;-2.21;71.52;97355.43;1791659;78;25638;-81
2021/11/25 00:37:43;;;;;;;77.78;38.30;;;;;;;-2.22;71.47;97358.55;1791744;80;25687;-81
2021/11/25 00:40:14;;;;;;;70.87;37.38;;;;;;;-2.19;71.48;97356.14;1791510;78;26670;-81
2021/11/25 00:42:41;;;;;;;72.80;38.57;;;;;;;-2.19;71.54;97357.45;1792198;78;25945;-81
2021/11/25 00:45:09;;;;;;;72.42;36.85;;;;;;;-2.17;71.49;97346.23;1791911;78;28034;-81
2021/11/25 00:47:36;;;;;;;66.02;31.90;;;;;;;-2.17;71.39;97343.59;1791614;78;25756;-81
2021/11/25 00:50:06;;;;;;;68.72;33.58;;;;;;;-2.17;71.37;97340.47;1791712;78;25737;-81
2021/11/25 00:52:33;;;;;;;67.47;30.62;;;;;;;-2.17;71.38;97336.50;1791798;78;26025;-81
2021/11/25 00:55:00;;;;;;;77.90;34.43;;;;;;;-2.18;71.40;97332.69;1791746;78;25723;-81
2021/11/25 00:57:27;;;;;;;66.95;31.50;;;;;;;-2.20;71.38;97336.79;1791813;79;27403;-81
2021/11/25 00:59:54;;;;;;;66.15;31.35;;;;;;;-2.22;71.41;97328.63;1791743;79;25681;-81
2021/11/25 01:02:21;;;;;;;69.72;29.05;;;;;;;-2.25;71.43;97325.77;1791721;78;25724;-81
2021/11/25 01:04:49;;;;;;;70.00;31.37;;;;;;;-2.30;71.50;97325.83;1791820;78;26063;-81
2021/11/25 01:07:16;;;;;;;60.50;29.70;;;;;;;-2.30;71.66;97328.47;1791814;78;25768;-81
2021/11/25 01:09:42;;;;;;;60.70;27.40;;;;;;;-2.36;71.60;97317.09;1791449;79;27431;-81
2021/11/25 01:12:11;;;;;;;54.40;26.52;;;;;;;-2.36;71.69;97319.73;1819679;77;25889;-81
2021/11/25 01:14:39;;;;;;;54.50;25.32;;;;;;;-2.35;71.72;97317.45;1778393;79;25677;-81
2021/11/25 01:17:06;;;;;;;55.05;26.75;;;;;;;-2.37;71.83;97312.77;1791792;78;26851;-81
2021/11/25 01:19:32;;;;;;;56.15;26.90;;;;;;;-2.33;71.83;97308.91;1791835;78;25772;-81
2021/11/25 01:21:59;;;;;;;59.13;27.82;;;;;;;-2.35;71.83;97306.88;1791843;78;27439;-81
2021/11/25 01:24:26;;;;;;;61.55;27.20;;;;;;;-2.36;71.81;97307.36;1791746;78;25776;-81
2021/11/25 01:26:52;;;;;;;52.38;24.47;;;;;;;-2.36;71.91;97299.91;1791488;78;26185;-81
2021/11/25 01:29:19;;;;;;;52.45;28.35;;;;;;;-2.32;71.93;97294.23;1791643;78;26039;-81
2021/11/25 01:31:46;;;;;;;53.00;27.25;;;;;;;-2.28;72.02;97293.45;1791734;78;25780;-81
2021/11/25 01:34:12;;;;;;;65.90;33.20;;;;;;;-2.21;72.00;97289.32;1791912;79;27341;-81
2021/11/25 01:36:39;;;;;;;68.07;34.35;;;;;;;-2.20;71.82;97281.73;1791773;78;26342;-81
2021/11/25 01:39:06;;;;;;;67.37;34.83;;;;;;;-2.25;71.72;97285.27;1791759;78;25510;-81
2021/11/25 01:41:32;;;;;;;71.17;35.38;;;;;;;-2.23;71.62;97285.97;1791471;78;26200;-81
2021/11/25 01:43:59;;;;;;;65.20;33.83;;;;;;;-2.33;71.59;97287.27;1791699;78;25792;-81
2021/11/25 01:46:26;;;;;;;60.83;31.80;;;;;;;-2.37;71.57;97296.42;1791736;78;27386;-81
2021/11/25 01:48:52;;;;;;;55.78;30.62;;;;;;;-2.39;71.75;97282.50;1791777;78;25674;-81
2021/11/25 01:51:21;;;;;;;54.63;27.52;;;;;;;-2.34;71.70;97280.79;1791721;80;25780;-81
2021/11/25 01:53:49;;;;;;;53.58;24.98;;;;;;;-2.32;71.67;97281.50;1791845;79;25986;-81
2021/11/25 01:56:17;;;;;;;50.38;25.77;;;;;;;-2.40;71.60;97265.45;1791772;78;25744;-81
2021/11/25 01:58:47;;;;;;;44.33;22.20;;;;;;;-2.58;71.68;97263.46;1791603;78;28239;-81
2021/11/25 02:01:16;;;;;;;44.55;24.37;;;;;;;-2.69;71.95;97254.31;1791626;78;25658;-81
2021/11/25 02:03:43;;;;;;;48.42;23.10;;;;;;;-2.67;72.14;97248.90;1791702;78;25762;-81
2021/11/25 02:06:13;;;;;;;49.00;24.47;;;;;;;-2.64;72.08;97248.13;1791805;78;26035;-81
2021/11/25 02:08:41;;;;;;;50.83;24.23;;;;;;;-2.62;72.14;97248.83;1819932;77;25639;-81
2021/11/25 02:11:10;;;;;;;44.53;23.92;;;;;;;-2.56;72.23;97252.28;1778396;79;28323;-81
2021/11/25 02:13:37;;;;;;;45.35;25.00;;;;;;;-2.50;72.29;97250.89;1794780;78;25712;-81
2021/11/25 02:16:04;;;;;;;44.13;24.37;;;;;;;-2.45;72.25;97250.50;1778642;79;25768;-81
2021/11/25 02:18:31;;;;;;;49.67;23.75;;;;;;;-2.40;72.09;97247.78;1794819;79;26559;-82
2021/11/25 02:21:00;;;;;;;52.90;23.02;;;;;;;-2.49;71.84;97249.08;1778564;79;25752;-81
2021/11/25 02:23:28;;;;;;;37.65;21.62;;;;;;;-2.56;71.93;97246.99;1794842;78;28016;-81
2021/11/25 02:25:57;;;;;;;44.77;23.18;;;;;;;-2.54;72.05;97242.38;1778577;79;25263;-81
2021/11/25 02:28:28;;;;;;;41.88;23.25;;;;;;;-2.52;72.06;97245.38;1794909;78;25724;-81
2021/11/25 02:30:55;;;;;;;46.40;21.82;;;;;;;-2.50;72.08;97235.03;1778791;79;26114;-81
2021/11/25 02:33:21;;;;;;;37.70;20.70;;;;;;;-2.47;72.13;97235.25;1794944;78;25755;-81
2021/11/25 02:35:48;;;;;;;38.00;19.45;;;;;;;-2.43;72.16;97231.38;1778725;79;27417;-81
2021/11/25 02:38:17;;;;;;;39.60;19.27;;;;;;;-2.42;72.11;97222.48;1794329;78;25715;-81
2021/11/25 02:40:50;;;;;;;42.50;20.60;;;;;;;-2.47;72.15;97223.36;1767441;79;25742;-81
2021/11/25 02:43:24;;;;;;;36.13;18.98;;;;;;;-2.45;72.25;97226.70;1793660;78;25744;-82
2021/11/25 02:45:59;;;;;;;38.83;20.72;;;;;;;-2.44;72.19;97220.45;1778729;79;25289;-81
2021/11/25 02:48:39;;;;;;;41.75;21.33;;;;;;;-2.48;72.16;97216.40;1773098;79;27323;-81
2021/11/25 02:51:07;;;;;;;71.05;28.42;;;;;;;-2.46;72.09;97218.42;1778512;79;25806;-81
2021/11/25 02:53:35;;;;;;;82.00;31.12;;;;;;;-2.47;72.00;97218.07;1794795;79;25226;-81
2021/11/25 02:56:06;;;;;;;65.57;27.93;;;;;;;-2.49;72.00;97206.31;1778671;79;26674;-81
2021/11/25 02:58:33;;;;;;;57.97;25.23;;;;;;;-2.48;72.02;97197.90;1795175;79;25247;-81
2021/11/25 03:01:14;;;;;;;55.08;23.90;;;;;;;-2.47;72.10;97191.64;1778844;79;27350;-81
2021/11/25 03:03:41;;;;;;;46.83;22.15;;;;;;;-2.45;71.94;97187.06;1794835;79;25740;-81
2021/11/25 03:06:08;;;;;;;39.67;20.75;;;;;;;-2.44;71.98;97183.45;1778931;79;25679;-81
2021/11/25 03:08:35;;;;;;;41.40;20.30;;;;;;;-2.44;71.94;97178.16;1794020;78;26172;-82
2021/11/25 03:11:07;;;;;;;38.45;19.32;;;;;;;-2.46;71.95;97182.74;1791585;78;25708;-81
2021/11/25 03:13:36;;;;;;;41.00;20.08;;;;;;;-2.61;71.81;97174.36;1790482;78;27629;-82
2021/11/25 03:16:04;;;;;;;34.43;17.50;;;;;;;-2.68;72.02;97171.92;1791765;78;25815;-82
2021/11/25 03:18:31;;;;;;;31.35;17.07;;;;;;;-2.67;72.16;97173.11;1789674;78;25729;-81
2021/11/25 03:20:58;;;;;;;34.27;18.00;;;;;;;-2.64;72.24;97167.53;1791837;80;26029;-82
2021/11/25 03:23:29;;;;;;;33.63;17.90;;;;;;;-2.60;72.21;97158.37;1791950;78;25709;-82
2021/11/25 03:25:58;;;;;;;35.23;17.20;;;;;;;-2.59;72.11;97156.08;1791896;78;28039;-81
2021/11/25 03:28:25;;;;;;;35.43;18.25;;;;;;;-2.61;72.06;97154.54;1791734;78;25179;-81
2021/11/25 03:30:56;;;;;;;35.03;18.02;;;;;;;-2.62;72.06;97151.06;1791859;80;25315;-82
2021/11/25 03:33:29;;;;;;;31.00;16.80;;;;;;;-2.67;72.06;97141.41;1791932;78;26751;-82
2021/11/25 03:35:58;;;;;;;31.15;14.58;;;;;;;-2.66;72.04;97147.04;1782301;79;25683;-81
2021/11/25 03:38:25;;;;;;;29.87;15.45;;;;;;;-2.73;72.09;97150.34;1780507;78;27416;-81
2021/11/25 03:40:52;;;;;;;33.55;17.15;;;;;;;-2.86;72.08;97146.62;1791848;78;25748;-81
2021/11/25 03:43:19;;;;;;;27.90;14.90;;;;;;;-2.96;72.21;97141.80;1791602;79;25767;-81
2021/11/25 03:45:46;;;;;;;36.10;17.55;;;;;;;-2.96;72.32;97137.84;1791783;80;26012;-81
2021/11/25 03:48:13;;;;;;;41.18;18.98;;;;;;;-2.92;72.40;97142.72;1791851;78;25713;-81
2021/11/25 03:50:40;;;;;;;39.23;17.10;;;;;;;-2.89;72.43;97128.39;1791807;78;27352;-81
2021/11/25 03:53:08;;;;;;;35.88;17.95;;;;;;;-2.86;72.40;97124.17;1794734;78;25650;-82
2021/11/25 03:55:37;;;;;;;36.42;19.32;;;;;;;-2.85;72.45;97114.44;1792888;77;26465;-82
2021/11/25 03:58:04;;;;;;;37.13;17.98;;;;;;;-2.80;72.46;97115.72;1791954;78;26833;-81
2021/11/25 04:00:32;;;;;;;32.03;17.23;;;;;;;-2.77;72.39;97114.58;1791959;78;25724;-80
2021/11/25 04:03:01;;;;;;;28.92;15.70;;;;;;;-2.78;72.39;97107.17;1791781;78;27435;-81
2021/11/25 04:05:29;;;;;;;32.67;16.07;;;;;;;-2.76;72.46;97101.24;1791783;79;26340;-81
2021/11/25 04:07:55;;;;;;;32.75;14.65;;;;;;;-2.75;72.45;97106.04;1791740;78;25738;-81
2021/11/25 04:10:22;;;;;;;32.13;16.00;;;;;;;-2.77;72.52;97103.53;1791574;78;26588;-81
2021/11/25 04:12:49;;;;;;;36.28;17.10;;;;;;;-2.76;72.64;97096.44;1791949;79;25210;-81
2021/11/25 04:15:18;;;;;;;34.13;18.42;;;;;;;-2.73;72.63;97098.34;1791880;78;28204;-81
2021/11/25 04:17:45;;;;;;;41.58;19.07;;;;;;;-2.71;72.57;97089.80;1791756;79;25728;-81
2021/11/25 04:20:13;;;;;;;47.00;22.32;;;;;;;-2.75;72.46;97083.10;1791867;78;25665;-81
2021/11/25 04:22:40;;;;;;;43.65;22.55;;;;;;;-2.80;72.45;97081.37;1791928;80;26974;-81
2021/11/25 04:25:08;;;;;;;32.70;19.60;;;;;;;-2.81;72.40;97074.42;1791810;78;25677;-81
2021/11/25 04:27:34;;;;;;;41.80;20.48;;;;;;;-2.81;72.40;97081.51;1791691;78;27451;-81
2021/11/25 04:30:22;;;;;;;37.10;18.92;;;;;;;-2.83;72.49;97079.48;1791789;78;25700;-81
2021/11/25 04:37:57;;;;;;;43.83;19.90;;;;;;;-2.84;72.52;97062.80;1820022;77;25758;-81
2021/11/25 04:40:23;;;;;;;44.13;22.27;;;;;;;-2.81;72.54;97059.89;1817792;77;27390;-81
2021/11/25 04:42:50;;;;;;;52.98;23.60;;;;;;;-2.79;72.50;97053.98;1819511;77;25816;-81
2021/11/25 04:45:17;;;;;;;55.28;26.05;;;;;;;-2.79;72.49;97048.70;1820068;77;25746;-81
2021/11/25 04:47:43;;;;;;;62.62;26.35;;;;;;;-2.80;72.44;97041.75;1820023;77;25973;-81
2021/11/25 04:50:10;;;;;;;56.58;24.50;;;;;;;-2.83;72.49;97042.02;1820041;77;25253;-80
2021/11/25 04:52:36;;;;;;;64.85;24.77;;;;;;;-2.79;72.54;97035.50;1778363;79;27386;-81
2021/11/25 04:55:04;;;;;;;59.70;24.77;;;;;;;-2.84;72.49;97031.10;1791787;78;26281;-81
2021/11/25 04:57:30;;;;;;;58.90;25.77;;;;;;;-2.82;72.63;97017.27;1791946;78;25696;-81
2021/11/25 04:59:57;;;;;;;64.82;27.40;;;;;;;-2.85;72.55;97020.19;1791788;78;26007;-81
2021/11/25 05:02:23;;;;;;;60.92;27.62;;;;;;;-2.96;72.50;97017.67;1791830;80;25673;-81
2021/11/25 05:04:50;;;;;;;64.32;28.00;;;;;;;-3.01;72.69;97014.59;1791888;78;27402;-81
2021/11/25 05:07:16;;;;;;;63.63;27.22;;;;;;;-2.98;72.81;97010.37;1791912;78;25658;-81
2021/11/25 05:09:43;;;;;;;53.52;23.80;;;;;;;-2.92;72.89;97009.83;1791787;80;25786;-81
2021/11/25 05:12:10;;;;;;;48.55;23.70;;;;;;;-2.87;72.91;97001.48;1791742;79;26181;-81
2021/11/25 05:14:36;;;;;;;47.17;22.10;;;;;;;-2.82;72.89;96997.46;1791706;78;25732;-81
2021/11/25 05:17:03;;;;;;;45.52;22.10;;;;;;;-2.79;72.84;96996.36;1791706;79;28353;-81
2021/11/25 05:19:31;;;;;;;47.20;21.70;;;;;;;-2.79;72.73;96993.72;1791674;78;25634;-81
2021/11/25 05:21:59;;;;;;;48.80;22.22;;;;;;;-2.79;72.73;96983.15;1791789;79;25740;-80
2021/11/25 05:24:25;;;;;;;47.27;23.60;;;;;;;-2.76;72.72;96977.56;1791829;78;25985;-81
2021/11/25 05:26:53;;;;;;;59.85;23.90;;;;;;;-2.76;72.73;96970.48;1791873;80;25682;-81
2021/11/25 05:29:22;;;;;;;64.55;25.55;;;;;;;-2.80;72.80;96968.27;1791737;78;27401;-80
2021/11/25 05:31:50;;;;;;;57.90;26.37;;;;;;;-2.93;72.70;96963.27;1791064;78;25761;-81
2021/11/25 05:34:17;;;;;;;55.10;27.85;;;;;;;-2.99;72.84;96969.92;1791758;80;25756;-81
2021/11/25 05:36:45;;;;;;;57.43;27.15;;;;;;;-3.03;72.90;96968.55;1791670;78;26334;-81
2021/11/25 05:39:12;;;;;;;62.20;29.37;;;;;;;-3.01;72.98;96965.73;1791752;78;25757;-80
2021/11/25 05:41:40;;;;;;;78.17;32.93;;;;;;;-2.98;73.00;96965.47;1791845;78;28070;-81
2021/11/25 05:44:08;;;;;;;75.22;31.48;;;;;;;-2.98;73.05;96972.08;1791453;78;25227;-81
2021/11/25 05:46:35;;;;;;;69.92;31.35;;;;;;;-2.93;73.19;96961.94;1791809;78;26348;-80
2021/11/25 05:49:03;;;;;;;73.95;30.32;;;;;;;-2.84;73.21;96966.87;1791771;78;26025;-80
2021/11/25 05:51:29;;;;;;;65.62;29.07;;;;;;;-2.83;72.97;96962.77;1791664;79;25689;-80
2021/11/25 05:53:56;;;;;;;65.72;27.95;;;;;;;-2.84;72.87;96961.10;1791624;80;28019;-81
2021/11/25 05:56:22;;;;;;;62.55;29.37;;;;;;;-2.84;72.76;96958.46;1791622;78;25708;-80
2021/11/25 05:58:49;;;;;;;59.38;26.70;;;;;;;-2.83;72.74;96948.73;1791703;78;25753;-81
2021/11/25 06:01:16;;;;;;;48.58;25.12;;;;;;;-2.84;72.74;96941.78;1791773;79;26783;-81
2021/11/25 06:03:42;;;;;;;61.63;26.37;;;;;;;-2.90;72.72;96955.88;1791780;78;25768;-81
2021/11/25 06:06:09;;;;;;;56.75;27.20;;;;;;;-2.87;72.86;96959.22;1791763;78;28196;-81
2021/11/25 06:08:35;;;;;;;58.28;25.70;;;;;;;-2.85;72.91;96959.92;1791592;79;25708;-81
2021/11/25 06:11:02;;;;;;;59.55;25.27;;;;;;;-2.93;72.91;96961.45;1793775;78;25755;-81
2021/11/25 06:13:30;;;;;;;80.57;36.53;;;;;;;-2.95;73.01;96955.96;1741326;80;26048;-81
2021/11/25 06:15:56;;;;;;;58.52;26.20;;;;;;;-3.00;73.04;96955.53;1737716;81;25992;-81
2021/11/25 06:18:23;;;;;;;50.80;22.77;;;;;;;-3.06;73.16;96958.25;1737825;81;26814;-81
2021/11/25 06:20:49;;;;;;;52.25;23.15;;;;;;;-3.10;73.31;96945.45;1733130;81;25917;-81
2021/11/25 06:23:17;;;;;;;51.65;23.18;;;;;;;-3.15;73.44;96949.02;1733237;82;25815;-81
2021/11/25 06:25:46;;;;;;;54.58;24.70;;;;;;;-3.05;73.71;96947.20;1733264;81;26075;-81
2021/11/25 06:28:13;;;;;;;78.45;35.03;;;;;;;-2.98;73.67;96946.98;1733251;81;25725;-81
2021/11/25 06:30:40;;;;;;;79.30;36.90;;;;;;;-2.96;73.52;96949.01;1733287;81;27428;-81
2021/11/25 06:33:06;;;;;;;70.78;34.18;;;;;;;-2.93;73.46;96955.34;1733216;81;25779;-81
2021/11/25 06:35:33;;;;;;;69.62;29.70;;;;;;;-2.88;73.49;96950.94;1733207;81;25701;-81
2021/11/25 06:38:00;;;;;;;50.70;23.52;;;;;;;-2.85;73.62;96946.71;1733175;81;26032;-81
2021/11/25 06:40:30;;;;;;;50.95;25.08;;;;;;;-2.80;73.79;96949.30;1733223;82;25722;-81
2021/11/25 06:43:00;;;;;;;69.58;28.52;;;;;;;-2.79;73.85;96952.77;1732964;81;28006;-81
2021/11/25 06:45:27;;;;;;;76.07;30.92;;;;;;;-2.75;73.82;96945.73;1733042;81;25266;-81
2021/11/25 06:47:55;;;;;;;88.15;34.78;;;;;;;-2.77;73.73;96943.70;1733213;81;25732;-81
2021/11/25 06:50:23;;;;;;;95.47;41.80;;;;;;;-2.75;73.83;96933.84;1733234;81;25985;-81
2021/11/25 06:52:51;;;;;;;79.90;35.10;;;;;;;-2.63;73.94;96935.84;1733157;82;25726;-81
2021/11/25 06:55:18;;;;;;;70.00;32.28;;;;;;;-2.54;73.91;96931.05;1733130;81;27420;-81
2021/11/25 06:57:49;;;;;;;72.80;33.85;;;;;;;-2.48;73.82;96934.44;1732982;81;25873;-81
2021/11/25 07:00:20;;;;;;;72.42;29.72;;;;;;;-2.43;73.78;96932.70;1733113;82;25773;-81
2021/11/25 07:02:46;;;;;;;67.27;27.90;;;;;;;-2.39;73.70;96930.93;1733276;81;26959;-81
2021/11/25 07:05:13;;;;;;;74.80;31.05;;;;;;;-2.35;73.72;96924.88;1733281;82;25677;-81
2021/11/25 07:07:40;;;;;;;88.75;35.75;;;;;;;-2.33;73.75;96918.97;1733314;82;27982;-82
2021/11/25 07:10:09;;;;;;;89.83;36.10;;;;;;;-2.38;73.71;96923.84;1737633;81;25791;-82
2021/11/25 07:12:36;;;;;;;71.53;31.45;;;;;;;-2.45;73.82;96921.43;1794635;78;25726;-82
2021/11/25 07:15:04;;;;;;;65.57;29.75;;;;;;;-2.48;73.94;96925.67;1778048;79;26097;-82
2021/11/25 07:17:32;;;;;;;66.95;30.57;;;;;;;-2.52;74.12;96921.64;1791637;78;25622;-83
2021/11/25 07:19:58;;;;;;;69.87;32.23;;;;;;;-2.50;74.21;96923.66;1791738;78;27349;-82
2021/11/25 07:22:26;;;;;;;72.22;34.13;;;;;;;-2.46;74.33;96929.02;1791748;78;25771;-83
2021/11/25 07:24:52;;;;;;;75.75;33.33;;;;;;;-2.38;74.37;96926.48;1791601;78;25814;-82
2021/11/25 07:27:19;;;;;;;67.90;35.48;;;;;;;-2.26;74.44;96929.30;1791664;80;25974;-82
2021/11/25 07:29:46;;;;;;;81.42;36.05;;;;;;;-2.19;74.37;96918.02;1791775;79;25697;-82
2021/11/25 07:32:12;;;;;;;80.47;40.15;;;;;;;-2.17;74.32;96921.82;1791652;79;27531;-83
2021/11/25 07:34:39;;;;;;;71.50;32.53;;;;;;;-2.15;74.33;96919.87;1789628;78;25795;-83
2021/11/25 07:37:05;;;;;;;67.75;34.00;;;;;;;-2.09;74.46;96917.98;1760650;80;25741;-82
2021/11/25 07:39:32;;;;;;;76.75;35.15;;;;;;;-2.04;74.53;96914.39;1818097;77;26598;-83
2021/11/25 07:41:58;;;;;;;78.65;37.45;;;;;;;-1.95;74.63;96908.26;1819677;78;25686;-83
2021/11/25 07:44:25;;;;;;;90.55;40.25;;;;;;;-1.90;74.69;96911.28;1819840;78;27430;-83
2021/11/25 07:46:51;;;;;;;82.55;36.63;;;;;;;-1.79;74.76;96913.38;1816600;77;26684;-83
2021/11/25 07:49:20;;;;;;;88.85;38.95;;;;;;;-1.70;74.77;96908.07;1800724;77;25727;-83
2021/11/25 07:51:47;;;;;;;91.45;38.70;;;;;;;-1.57;74.78;96912.49;1819994;77;26239;-84
2021/11/25 07:54:14;;;;;;;84.92;38.30;;;;;;;-1.45;74.83;96902.56;1820217;78;25695;-83
2021/11/25 07:56:41;;;;;;;70.28;32.48;;;;;;;-1.34;74.81;96905.00;1819965;78;27400;-83
2021/11/25 07:59:08;;;;;;;88.37;34.58;;;;;;;-1.24;74.75;96896.48;1819881;78;25874;-83
2021/11/25 08:01:36;;;;;;;77.12;35.15;;;;;;;-1.14;74.77;96899.89;1819893;78;25812;-83
2021/11/25 08:04:02;;;;;;;80.35;37.85;;;;;;;-1.00;74.73;96901.67;1819615;78;26609;-83
2021/11/25 08:06:29;;;;;;;79.05;36.73;;;;;;;-0.89;74.77;96899.63;1819856;77;25693;-82
2021/11/25 08:08:56;;;;;;;76.97;34.33;;;;;;;-0.77;74.72;96898.89;1819956;77;27348;-82
2021/11/25 08:11:22;;;;;;;76.40;34.48;;;;;;;-0.64;74.69;96903.30;1819570;76;25270;-82
2021/11/25 08:13:49;;;;;;;74.80;33.38;;;;;;;-0.51;74.67;96901.58;1819881;77;26395;-82
2021/11/25 08:16:16;;;;;;;59.33;29.63;;;;;;;-0.40;74.69;96903.48;1819733;77;25970;-81
2021/11/25 08:18:44;;;;;;;66.97;31.02;;;;;;;-0.23;74.65;96896.94;1819662;77;25953;-81
2021/11/25 08:21:14;;;;;;;64.35;32.28;;;;;;;-0.12;74.48;96898.83;1819341;77;27360;-82
2021/11/25 08:23:40;;;;;;;61.83;29.20;;;;;;;0.04;74.52;96890.13;1819664;77;25699;-83
2021/11/25 08:26:07;;;;;;;65.42;27.95;;;;;;;;;;1819768;77;25736;-82
2021/11/25 08:28:36;;;;;;;59.70;27.42;;;;;;;0.39;74.32;96889.11;1819618;77;25914;-82
2021/11/25 08:31:02;;;;;;;57.98;27.87;;;;;;;0.55;74.18;96885.69;1819765;77;25727;-81
2021/11/25 08:33:29;;;;;;;53.95;26.93;;;;;;;0.72;74.14;96875.45;1819812;77;27386;-81
2021/11/25 08:35:56;;;;;;;56.73;26.50;;;;;;;0.92;73.99;96880.79;1815589;77;25737;-82
2021/11/25 08:38:23;;;;;;;50.65;25.15;;;;;;;1.07;73.92;96869.85;1788596;78;25679;-82
2021/11/25 08:40:49;;;;;;;40.92;22.80;;;;;;;1.22;73.60;96875.81;1819648;77;26208;-81
2021/11/25 08:43:17;;;;;;;43.78;22.87;;;;;;;1.40;73.40;96877.81;1819613;77;25768;-81
2021/11/25 08:45:44;;;;;;;43.65;22.48;;;;;;;1.68;73.21;96873.80;1819441;78;27416;-82
2021/11/25 08:48:10;;;;;;;40.08;20.80;;;;;;;1.94;72.77;96882.88;1819718;77;25812;-83
2021/11/25 08:50:37;;;;;;;38.15;18.48;;;;;;;2.23;72.27;96882.30;1819500;77;25803;-83
2021/11/25 08:53:04;;;;;;;22.85;12.98;;;;;;;2.51;72.05;96876.03;1819567;77;26032;-83
2021/11/25 08:55:34;;;;;;;24.27;12.88;;;;;;;2.81;71.48;96863.69;1819648;77;25716;-83
2021/11/25 08:57:59;;;;;;;22.62;13.28;;;;;;;3.12;70.75;96861.00;1819170;77;27636;-82
2021/11/25 09:00:25;;;;;;;21.57;12.95;;;;;;;3.42;70.23;96864.08;1819590;78;25819;-82
2021/11/25 09:02:52;;;;;;;18.80;11.78;;;;;;;3.62;70.02;96859.08;1819821;77;25788;-84
2021/11/25 09:05:19;;;;;;;21.27;11.75;;;;;;;3.80;69.32;96848.88;1819786;77;26861;-83
2021/11/25 09:07:45;;;;;;;21.27;12.68;;;;;;;3.96;68.92;96840.70;1819785;78;25893;-82
2021/11/25 09:10:12;;;;;;;21.75;12.98;;;;;;;4.25;68.25;96845.70;1819444;77;27366;-84
2021/11/25 09:12:38;;;;;;;21.45;12.10;;;;;;;4.52;67.25;96838.34;1817495;77;25686;-84
2021/11/25 09:15:06;;;;;;;19.50;12.30;;;;;;;4.80;66.74;96833.63;1817599;78;25256;-84
2021/11/25 09:17:32;;;;;;;22.37;13.05;;;;;;;5.07;66.19;96826.22;1817893;78;25706;-83
2021/11/25 09:19:59;;;;;;;22.07;12.35;;;;;;;5.32;66.03;96824.78;1817927;77;25734;-84
2021/11/25 09:22:26;;;;;;;20.82;12.15;;;;;;;5.65;65.53;96822.39;1817630;77;28113;-84
2021/11/25 09:24:52;;;;;;;18.50;11.75;;;;;;;5.91;64.54;96823.64;1817414;77;25754;-85
2021/11/25 09:27:19;;;;;;;18.30;11.78;;;;;;;6.10;64.34;96818.39;1815998;77;25680;-85
2021/11/25 09:29:46;;;;;;;19.62;11.93;;;;;;;6.28;64.74;96814.37;1821957;77;26036;-84
2021/11/25 09:32:13;;;;;;;20.97;12.35;;;;;;;6.40;63.61;96803.39;1817368;77;25676;-84
2021/11/25 09:34:41;;;;;;;19.65;12.28;;;;;;;6.60;63.31;96805.63;1817824;77;27411;-84
2021/11/25 09:37:08;;;;;;;18.73;11.55;;;;;;;6.76;62.88;96802.56;1817560;77;25766;-85
2021/11/25 09:39:35;;;;;;;19.42;11.05;;;;;;;6.83;62.78;96802.60;1817329;77;25776;-85
2021/11/25 09:42:02;;;;;;;18.90;11.45;;;;;;;6.92;61.65;96797.88;1817637;77;26390;-85
2021/11/25 09:44:29;;;;;;;17.02;11.45;;;;;;;7.07;61.96;96791.30;1817205;77;25714;-85
2021/11/25 09:46:58;;;;;;;18.40;11.55;;;;;;;7.24;61.55;96800.59;1805952;77;27501;-85
2021/11/25 09:49:28;;;;;;;18.23;11.10;;;;;;;7.41;61.18;96781.41;1823615;77;25723;-85
2021/11/25 09:51:56;;;;;;;16.97;11.53;;;;;;;7.61;60.43;96785.45;1822869;77;25764;-84
2021/11/25 09:54:23;;;;;;;16.40;11.43;;;;;;;7.82;60.13;96786.56;1817819;77;26040;-85
2021/11/25 09:56:51;;;;;;;15.15;10.45;;;;;;;7.97;60.07;96783.10;1817711;77;25716;-85
2021/11/25 09:59:18;;;;;;;16.73;10.45;;;;;;;8.07;59.16;96782.17;1817778;77;27193;-85
2021/11/25 10:01:45;;;;;;;17.55;11.15;;;;;;;8.21;58.57;96766.83;1817691;77;25723;-85
2021/11/25 10:04:12;;;;;;;15.60;10.72;;;;;;;8.40;57.72;96757.06;1817723;77;25744;-86
2021/11/25 10:06:59;;;;;;;14.95;10.85;;;;;;;8.61;58.07;96757.58;1807051;77;25690;-85
2021/11/25 10:09:36;;;;;;;16.67;10.38;;;;;;;8.80;56.55;96742.38;1816298;77;25786;-86
2021/11/25 10:12:37;;;;;;;16.05;10.72;;;;;;;8.90;57.24;96737.34;1814209;77;27996;-86
2021/11/25 10:15:04;;;;;;;13.88;10.53;;;;;;;9.07;56.98;96732.24;1826386;77;26375;-86
2021/11/25 10:17:47;;;;;;;16.80;10.90;;;;;;;9.38;56.28;96724.66;1832285;76;25731;-86
2021/11/25 10:20:18;;;;;;;16.02;9.83;;;;;;;9.68;56.27;96716.19;1812401;77;26000;-85
2021/11/25 10:23:12;;;;;;;19.07;10.65;;;;;;;9.88;55.52;96700.35;1769539;79;25859;-85
2021/11/25 10:26:01;;;;;;;17.07;11.33;;;;;;;10.02;55.17;96695.91;1770084;79;28078;-86
2021/11/25 10:28:43;;;;;;;14.30;10.43;;;;;;;10.14;54.90;96702.75;1762330;81;25740;-85
2021/11/25 10:31:21;;;;;;;14.58;8.90;;;;;;;10.36;54.37;96701.27;1744710;80;25870;-86
2021/11/25 10:33:54;;;;;;;14.00;9.58;;;;;;;10.58;53.41;96692.67;1767151;79;25904;-86
2021/11/25 10:36:38;;;;;;;15.25;10.25;;;;;;;10.82;52.76;96684.95;1767568;80;25713;-86
2021/11/25 10:39:25;;;;;;;18.07;11.50;;;;;;;10.84;51.96;96676.11;1774641;79;28339;-86
2021/11/25 10:41:46;;;;;;;16.85;10.90;;;;;;;10.97;52.25;96671.86;1767678;79;25751;-86
2021/11/25 10:44:29;;;;;;;18.82;11.28;;;;;;;11.16;51.82;96664.48;1751269;80;25765;-86
2021/11/25 10:47:16;;;;;;;16.40;10.88;;;;;;;11.37;51.24;96652.27;1764233;80;26039;-86
2021/11/25 10:49:58;;;;;;;14.25;10.23;;;;;;;11.61;51.20;96651.21;1772680;79;25731;-87
2021/11/25 10:52:41;;;;;;;14.10;10.23;;;;;;;11.89;50.62;96639.17;1767682;81;28039;-87
2021/11/25 10:55:19;;;;;;;15.63;10.03;;;;;;;12.09;50.27;96640.11;1767473;80;26230;-85
2021/11/25 10:58:00;;;;;;;14.07;9.83;;;;;;;12.14;49.05;96634.00;1763912;79;25886;-87
2021/11/25 11:00:38;;;;;;;13.13;9.35;;;;;;;12.16;49.08;96623.77;1770313;79;26712;-87
2021/11/25 11:03:23;;;;;;;14.87;10.10;;;;;;;12.26;49.17;96606.38;1767661;79;25810;-88
2021/11/25 11:05:56;;;;;;;15.05;9.60;;;;;;;12.46;49.16;96601.34;1766876;79;27474;-88
2021/11/25 11:08:25;;;;;;;17.20;11.50;;;;;;;12.63;48.80;96586.48;1767612;79;25754;-88
2021/11/25 11:10:58;;;;;;;18.95;10.53;;;;;;;12.72;48.32;96589.61;1767489;79;25722;-87
2021/11/25 11:16:22;;;;;;;15.03;9.43;;;;;;;13.02;48.23;96582.01;1778324;79;25254;-87
2021/11/25 11:21:40;;;;;;;16.52;11.12;;;;;;;13.14;47.73;96577.36;1819889;78;25687;-87
2021/11/25 11:24:17;;;;;;;16.05;10.65;;;;;;;13.07;47.06;96577.19;1819869;78;25749;-88
2021/11/25 11:26:54;;;;;;;16.67;10.08;;;;;;;13.15;47.11;96575.47;1798219;78;26994;-87
2021/11/25 11:29:27;;;;;;;11.43;8.40;;;;;;;13.18;46.90;96569.53;1830617;77;25812;-87
2021/11/25 11:31:58;;;;;;;11.18;7.92;;;;;;;13.16;46.28;96556.22;1815771;78;27578;-87
2021/11/25 11:34:26;;;;;;;9.08;6.53;;;;;;;13.18;46.31;96550.56;1819915;77;25708;-87
2021/11/25 11:36:55;;;;;;;11.08;7.30;;;;;;;13.23;45.97;96542.52;1819891;77;25736;-87